createdAt,value
2022-09-12T00:01:36.514Z,10.99
2022-09-12T00:04:06.129Z,10.88
2022-09-12T00:06:37.564Z,10.78
2022-09-12T00:09:13.692Z,10.69
2022-09-12T00:11:47.103Z,10.60
2022-09-12T00:14:18.982Z,10.55
2022-09-12T00:16:47.841Z,10.45
2022-09-12T00:19:19.724Z,10.35
2022-09-12T00:21:48.896Z,10.27
2022-09-12T00:24:18.960Z,10.23
2022-09-12T00:26:48.766Z,10.21
2022-09-12T00:29:23.091Z,10.17
2022-09-12T00:31:51.911Z,10.20
2022-09-12T00:34:20.922Z,10.22
2022-09-12T00:36:52.052Z,10.30
2022-09-12T00:39:22.173Z,10.36
2022-09-12T00:41:51.636Z,10.33
2022-09-12T00:44:22.901Z,10.24
2022-09-12T00:46:59.603Z,10.22
2022-09-12T00:49:46.634Z,10.23
2022-09-12T00:52:21.000Z,10.24
2022-09-12T00:54:50.537Z,10.31
2022-09-12T00:57:24.546Z,10.38
2022-09-12T01:00:01.898Z,10.42
2022-09-12T01:02:30.921Z,10.45
2022-09-12T01:05:01.667Z,10.46
2022-09-12T01:07:31.029Z,10.46
2022-09-12T01:09:59.918Z,10.52
2022-09-12T01:12:30.411Z,10.54
2022-09-12T01:15:00.325Z,10.59
2022-09-12T01:17:43.884Z,10.58
2022-09-12T01:20:23.105Z,10.55
2022-09-12T01:23:10.327Z,10.56
2022-09-12T01:26:01.391Z,10.51
2022-09-12T01:28:40.010Z,10.49
2022-09-12T01:31:44.088Z,10.40
2022-09-12T01:34:47.480Z,10.40
2022-09-12T01:37:28.853Z,10.38
2022-09-12T01:40:17.592Z,10.37
2022-09-12T01:43:05.120Z,10.45
2022-09-12T01:45:48.691Z,10.51
2022-09-12T01:48:25.450Z,10.58
2022-09-12T01:51:05.198Z,10.58
2022-09-12T01:53:42.793Z,10.53
2022-09-12T01:56:26.376Z,10.46
2022-09-12T01:58:59.349Z,10.36
2022-09-12T02:01:39.013Z,10.32
2022-09-12T02:04:15.392Z,10.30
2022-09-12T02:07:36.176Z,10.27
2022-09-12T02:10:32.378Z,10.22
2022-09-12T02:13:10.517Z,10.23
2022-09-12T02:15:49.646Z,10.21
2022-09-12T02:18:21.588Z,10.14
2022-09-12T02:20:52.184Z,10.14
2022-09-12T02:23:25.745Z,10.08
2022-09-12T02:26:00.861Z,10.11
2022-09-12T02:28:36.531Z,10.13
2022-09-12T02:31:20.548Z,10.12
2022-09-12T02:34:03.151Z,10.11
2022-09-12T02:36:52.379Z,10.12
2022-09-12T02:39:23.159Z,10.08
2022-09-12T02:41:55.146Z,10.03
2022-09-12T02:44:26.356Z,9.99
2022-09-12T02:47:01.701Z,9.96
2022-09-12T02:49:30.371Z,10.00
2022-09-12T02:52:03.115Z,10.00
2022-09-12T02:54:33.475Z,9.99
2022-09-12T02:57:02.503Z,9.90
2022-09-12T02:59:31.171Z,9.84
2022-09-12T03:02:28.637Z,9.76
2022-09-12T03:05:17.617Z,9.68
2022-09-12T03:08:15.597Z,9.62
2022-09-12T03:10:46.936Z,9.56
2022-09-12T03:13:32.451Z,9.52
2022-09-12T03:16:20.788Z,9.49
2022-09-12T03:18:57.740Z,9.42
2022-09-12T03:21:38.844Z,9.41
2022-09-12T03:24:17.394Z,9.45
2022-09-12T03:26:55.534Z,9.45
2022-09-12T03:29:27.701Z,9.53
2022-09-12T03:31:58.193Z,9.57
2022-09-12T03:34:29.340Z,9.53
2022-09-12T03:36:58.724Z,9.51
2022-09-12T03:39:28.427Z,9.56
2022-09-12T03:41:57.672Z,9.60
2022-09-12T03:44:28.626Z,9.60
2022-09-12T03:46:57.335Z,9.61
2022-09-12T03:49:26.595Z,9.68
2022-09-12T03:51:55.211Z,9.69
2022-09-12T03:54:23.950Z,9.65
2022-09-12T03:56:53.093Z,9.69
2022-09-12T03:59:22.527Z,9.68
2022-09-12T04:01:51.151Z,9.64
2022-09-12T04:04:23.981Z,9.58
2022-09-12T04:06:57.915Z,9.58
2022-09-12T04:09:26.653Z,9.65
2022-09-12T04:11:55.336Z,9.64
2022-09-12T04:14:25.714Z,9.69
2022-09-12T04:16:57.118Z,9.78
2022-09-12T04:19:28.142Z,9.81
2022-09-12T04:21:58.146Z,9.83
2022-09-12T04:24:29.496Z,9.87
2022-09-12T04:26:58.795Z,9.87
2022-09-12T04:29:28.137Z,9.84
2022-09-12T04:31:58.335Z,9.88
2022-09-12T04:34:26.942Z,9.92
2022-09-12T04:36:55.510Z,9.93
2022-09-12T04:39:25.083Z,9.88
2022-09-12T04:41:53.884Z,9.84
2022-09-12T04:44:23.158Z,9.77
2022-09-12T04:46:53.402Z,9.73
2022-09-12T04:49:22.756Z,9.72
2022-09-12T04:51:53.872Z,9.70
2022-09-12T04:54:22.862Z,9.68
2022-09-12T04:56:52.983Z,9.66
2022-09-12T04:59:23.921Z,9.66
2022-09-12T05:01:52.873Z,9.64
2022-09-12T05:04:23.646Z,9.62
2022-09-12T05:06:53.495Z,9.60
2022-09-12T05:09:23.185Z,9.60
2022-09-12T05:12:09.696Z,9.61
2022-09-12T05:14:38.427Z,9.64
2022-09-12T05:17:07.079Z,9.60
2022-09-12T05:19:35.747Z,9.54
2022-09-12T05:22:07.196Z,9.57
2022-09-12T05:24:47.261Z,9.66
2022-09-12T05:27:20.478Z,9.75
2022-09-12T05:29:50.366Z,9.81
2022-09-12T05:32:21.230Z,9.88
2022-09-12T05:34:50.220Z,9.98
2022-09-12T05:37:19.010Z,10.07
2022-09-12T05:39:49.013Z,10.23
2022-09-12T05:42:19.054Z,10.48
2022-09-12T05:44:47.744Z,10.69
2022-09-12T05:47:18.454Z,10.98
2022-09-12T05:49:48.434Z,11.33
2022-09-12T05:52:18.103Z,11.58
2022-09-12T05:54:48.844Z,11.74
2022-09-12T05:57:20.085Z,11.85
2022-09-12T05:59:51.145Z,12.04
2022-09-12T06:02:21.091Z,12.19
2022-09-12T06:04:49.874Z,12.29
2022-09-12T06:08:08.725Z,12.40
2022-09-12T06:10:37.844Z,12.56
2022-09-12T06:13:07.134Z,12.74
2022-09-12T06:15:36.405Z,12.83
2022-09-12T06:18:05.459Z,12.98
2022-09-12T06:20:37.475Z,13.15
2022-09-12T06:23:08.296Z,13.24
2022-09-12T06:25:39.272Z,13.29
2022-09-12T06:28:09.964Z,13.41
2022-09-12T06:30:38.975Z,13.56
2022-09-12T06:33:08.085Z,13.59
2022-09-12T06:35:38.624Z,13.76
2022-09-12T06:38:09.992Z,13.95
2022-09-12T06:40:46.756Z,14.15
2022-09-12T06:43:17.363Z,14.38
2022-09-12T06:45:51.609Z,15.61
2022-09-12T06:48:22.462Z,18.66
2022-09-12T06:51:05.280Z,21.27
2022-09-12T06:53:37.393Z,23.60
2022-09-12T06:56:16.505Z,25.51
2022-09-12T06:58:49.106Z,27.21
2022-09-12T07:01:24.142Z,28.45
2022-09-12T07:04:01.697Z,29.41
2022-09-12T07:06:42.034Z,30.46
2022-09-12T07:09:18.386Z,31.54
2022-09-12T07:11:47.610Z,32.23
2022-09-12T07:14:18.197Z,32.77
2022-09-12T07:16:47.856Z,33.53
2022-09-12T07:19:18.009Z,34.15
2022-09-12T07:21:48.151Z,34.54
2022-09-12T07:24:16.860Z,35.15
2022-09-12T07:26:50.382Z,35.52
2022-09-12T07:29:36.010Z,35.84
2022-09-12T07:32:08.142Z,36.03
2022-09-12T07:34:37.180Z,36.08
2022-09-12T07:37:09.763Z,36.36
2022-09-12T07:39:40.587Z,36.83
2022-09-12T07:42:09.849Z,37.12
2022-09-12T07:44:38.951Z,37.30
2022-09-12T07:47:10.411Z,37.47
2022-09-12T07:49:40.873Z,37.54
2022-09-12T07:52:11.930Z,37.64
2022-09-12T07:54:42.661Z,37.01
2022-09-12T07:57:13.008Z,36.39
2022-09-12T07:59:52.519Z,36.65
2022-09-12T08:02:22.773Z,37.36
2022-09-12T08:04:51.951Z,37.87
2022-09-12T08:07:25.682Z,37.64
2022-09-12T08:09:54.992Z,37.63
2022-09-12T08:12:24.487Z,38.18
2022-09-12T08:14:54.998Z,37.02
2022-09-12T08:17:24.723Z,35.14
2022-09-12T08:19:54.154Z,34.64
2022-09-12T08:22:24.659Z,35.41
2022-09-12T08:24:53.223Z,34.67
2022-09-12T08:27:23.186Z,33.16
2022-09-12T08:29:52.011Z,31.78
2022-09-12T08:32:21.386Z,31.45
2022-09-12T08:34:49.871Z,31.22
2022-09-12T08:37:20.144Z,31.31
2022-09-12T08:39:51.445Z,31.71
2022-09-12T08:42:47.769Z,30.98
2022-09-12T08:45:42.180Z,29.78
2022-09-12T08:48:13.081Z,28.72
2022-09-12T08:50:49.313Z,29.53
2022-09-12T08:53:23.779Z,29.30
2022-09-12T08:56:00.621Z,28.24
2022-09-12T08:58:30.341Z,27.08
2022-09-12T09:01:14.133Z,26.27
2022-09-12T09:03:50.602Z,25.41
2022-09-12T09:06:27.245Z,24.56
2022-09-12T09:09:21.829Z,23.70
2022-09-12T09:11:53.579Z,22.84
2022-09-12T09:14:48.166Z,22.16
2022-09-12T09:17:29.953Z,21.75
2022-09-12T09:20:12.760Z,21.63
2022-09-12T09:22:53.593Z,21.60
2022-09-12T09:25:47.403Z,21.74
2022-09-12T09:28:30.426Z,22.02
2022-09-12T09:31:00.115Z,22.53
2022-09-12T09:33:34.335Z,24.10
2022-09-12T09:36:32.078Z,25.46
2022-09-12T09:39:22.584Z,27.21
2022-09-12T09:41:57.204Z,27.78
2022-09-12T09:44:31.361Z,28.07
2022-09-12T09:47:01.807Z,28.18
2022-09-12T09:49:34.445Z,29.87
2022-09-12T09:52:06.266Z,31.65
2022-09-12T09:54:57.338Z,33.11
2022-09-12T09:57:34.955Z,31.72
2022-09-12T10:00:40.133Z,30.38
2022-09-12T10:03:14.862Z,30.88
2022-09-12T10:05:55.253Z,31.62
2022-09-12T10:08:28.226Z,31.93
2022-09-12T10:11:17.834Z,32.81
2022-09-12T10:14:03.522Z,32.50
2022-09-12T10:16:48.578Z,31.23
2022-09-12T10:19:26.936Z,30.10
2022-09-12T10:21:57.188Z,29.01
2022-09-12T10:24:31.550Z,27.99
2022-09-12T10:27:19.239Z,26.89
2022-09-12T10:29:56.351Z,25.85
2022-09-12T10:32:41.494Z,25.05
2022-09-12T10:35:21.546Z,24.37
2022-09-12T10:38:02.928Z,23.98
2022-09-12T10:40:43.139Z,23.58
2022-09-12T10:43:39.859Z,23.27
2022-09-12T10:46:22.841Z,22.97
2022-09-12T10:49:21.723Z,22.68
2022-09-12T10:51:53.918Z,22.50
2022-09-12T10:54:27.365Z,22.38
2022-09-12T10:57:10.425Z,22.31
2022-09-12T10:59:46.993Z,22.26
2022-09-12T11:02:23.809Z,22.14
2022-09-12T11:04:59.830Z,22.01
2022-09-12T11:07:34.908Z,21.89
2022-09-12T11:10:17.699Z,21.89
2022-09-12T11:12:49.408Z,22.20
2022-09-12T11:15:55.673Z,22.43
2022-09-12T11:18:27.475Z,22.64
2022-09-12T11:21:16.914Z,22.85
2022-09-12T11:24:10.685Z,23.15
2022-09-12T11:27:01.958Z,23.35
2022-09-12T11:29:44.071Z,23.45
2022-09-12T11:32:38.994Z,23.40
2022-09-12T11:35:28.653Z,23.23
2022-09-12T11:38:36.861Z,23.24
2022-09-12T11:41:21.147Z,23.73
2022-09-12T11:44:11.057Z,23.89
2022-09-12T11:46:43.225Z,24.84
2022-09-12T11:49:21.529Z,25.89
2022-09-12T11:52:15.753Z,26.58
2022-09-12T11:54:53.333Z,27.21
2022-09-12T11:57:40.372Z,27.69
2022-09-12T12:00:35.757Z,28.03
2022-09-12T12:03:07.692Z,28.00
2022-09-12T12:05:55.912Z,27.08
2022-09-12T12:08:27.076Z,26.30
2022-09-12T12:10:58.856Z,25.88
2022-09-12T12:13:40.659Z,25.28
2022-09-12T12:16:30.316Z,24.61
2022-09-12T12:19:07.557Z,23.98
2022-09-12T12:21:47.094Z,23.92
2022-09-12T12:24:21.730Z,24.40
2022-09-12T12:27:04.568Z,24.82
2022-09-12T12:29:58.018Z,24.80
2022-09-12T12:32:27.961Z,24.26
2022-09-12T12:35:24.141Z,23.86
2022-09-12T12:37:56.317Z,24.14
2022-09-12T12:40:28.082Z,25.01
2022-09-12T12:43:04.117Z,25.50
2022-09-12T12:45:36.380Z,25.37
2022-09-12T12:48:14.879Z,25.76
2022-09-12T12:50:43.742Z,26.01
2022-09-12T12:53:29.567Z,25.49
2022-09-12T12:55:58.700Z,24.91
2022-09-12T12:58:36.683Z,24.45
2022-09-12T13:01:23.345Z,24.00
2022-09-12T13:03:57.054Z,23.36
2022-09-12T13:06:38.093Z,22.80
2022-09-12T13:09:28.119Z,22.34
2022-09-12T13:12:02.339Z,21.89
2022-09-12T13:14:52.313Z,21.58
2022-09-12T13:17:47.600Z,21.30
2022-09-12T13:20:28.267Z,21.05
2022-09-12T13:22:59.446Z,20.90
2022-09-12T13:25:33.456Z,20.75
2022-09-12T13:28:12.672Z,20.56
2022-09-12T13:30:46.820Z,20.40
2022-09-12T13:33:19.439Z,20.29
2022-09-12T13:36:14.475Z,20.15
2022-09-12T13:39:02.656Z,20.00
2022-09-12T13:41:31.325Z,19.88
2022-09-12T13:44:02.899Z,19.81
2022-09-12T13:46:35.115Z,19.78
2022-09-12T13:49:20.691Z,19.78
2022-09-12T13:52:07.309Z,19.84
2022-09-12T13:54:39.328Z,19.88
2022-09-12T13:57:09.019Z,19.93
2022-09-12T13:59:43.078Z,19.96
2022-09-12T14:02:24.153Z,20.03
2022-09-12T14:05:13.556Z,20.12
2022-09-12T14:07:56.956Z,20.24
2022-09-12T14:10:34.150Z,20.35
2022-09-12T14:13:12.361Z,20.47
2022-09-12T14:15:47.844Z,20.76
2022-09-12T14:18:28.847Z,20.91
2022-09-12T14:21:13.188Z,20.92
2022-09-12T14:23:49.165Z,21.16
2022-09-12T14:26:19.445Z,21.40
2022-09-12T14:28:48.676Z,21.60
2022-09-12T14:31:23.960Z,21.83
2022-09-12T14:34:11.483Z,21.85
2022-09-12T14:36:50.936Z,21.54
2022-09-12T14:39:40.743Z,21.23
2022-09-12T14:42:18.700Z,20.87
2022-09-12T14:45:17.968Z,20.59
2022-09-12T14:47:54.096Z,20.26
2022-09-12T14:50:32.166Z,19.99
2022-09-12T14:53:18.201Z,19.82
2022-09-12T14:55:55.439Z,19.59
2022-09-12T14:58:29.032Z,19.43
2022-09-12T15:01:04.145Z,19.36
2022-09-12T15:03:36.368Z,19.29
2022-09-12T15:06:09.544Z,19.26
2022-09-12T15:08:42.759Z,19.18
2022-09-12T15:11:13.623Z,19.11
2022-09-12T15:13:44.806Z,19.07
2022-09-12T15:16:18.621Z,19.02
2022-09-12T15:18:47.453Z,18.97
2022-09-12T15:21:20.907Z,18.92
2022-09-12T15:23:51.314Z,18.83
2022-09-12T15:26:23.708Z,18.73
2022-09-12T15:28:52.367Z,18.64
2022-09-12T15:31:27.549Z,18.56
2022-09-12T15:34:00.708Z,18.50
2022-09-12T15:36:29.971Z,18.46
2022-09-12T15:38:59.566Z,18.44
2022-09-12T15:41:39.065Z,18.59
2022-09-12T15:44:12.889Z,18.81
2022-09-12T15:46:42.545Z,19.02
2022-09-12T15:49:11.564Z,19.16
2022-09-12T15:51:41.414Z,19.29
2022-09-12T15:54:14.552Z,19.39
2022-09-12T15:56:44.304Z,19.48
2022-09-12T15:59:13.903Z,19.53
2022-09-12T16:01:43.119Z,19.55
2022-09-12T16:04:32.302Z,19.56
2022-09-12T16:07:01.568Z,19.48
2022-09-12T16:09:30.462Z,19.39
2022-09-12T16:12:00.116Z,19.27
2022-09-12T16:14:31.500Z,19.14
2022-09-12T16:17:02.088Z,18.95
2022-09-12T16:19:31.743Z,18.78
2022-09-12T16:22:01.381Z,18.57
2022-09-12T16:24:31.613Z,18.41
2022-09-12T16:27:01.301Z,18.26
2022-09-12T16:29:30.505Z,18.12
2022-09-12T16:31:59.211Z,17.97
2022-09-12T16:34:28.016Z,17.82
2022-09-12T16:36:58.014Z,17.67
2022-09-12T16:39:27.689Z,17.53
2022-09-12T16:41:59.214Z,17.38
2022-09-12T16:44:30.969Z,17.21
2022-09-12T16:47:02.085Z,17.02
2022-09-12T16:49:30.991Z,16.82
2022-09-12T16:52:00.073Z,16.62
2022-09-12T16:54:30.829Z,16.41
2022-09-12T16:57:01.050Z,16.22
2022-09-12T16:59:31.476Z,16.03
2022-09-12T17:02:02.672Z,15.86
2022-09-12T17:04:33.862Z,15.69
2022-09-12T17:07:03.867Z,15.52
2022-09-12T17:09:37.200Z,15.38
2022-09-12T17:12:07.957Z,15.26
2022-09-12T17:14:37.895Z,15.15
2022-09-12T17:17:09.348Z,15.06
2022-09-12T17:19:39.978Z,14.97
2022-09-12T17:22:11.640Z,14.87
2022-09-12T17:24:43.787Z,14.78
2022-09-12T17:27:12.889Z,14.69
2022-09-12T17:29:43.115Z,14.59
2022-09-12T17:32:17.343Z,14.48
2022-09-12T17:34:46.445Z,14.35
2022-09-12T17:37:15.421Z,14.22
2022-09-12T17:39:44.259Z,14.14
2022-09-12T17:42:16.722Z,14.05
2022-09-12T17:44:48.641Z,13.98
2022-09-12T17:47:17.551Z,13.90
2022-09-12T17:49:48.263Z,13.80
2022-09-12T17:52:17.095Z,13.74
2022-09-12T17:54:46.676Z,13.66
2022-09-12T17:57:16.045Z,13.56
2022-09-12T17:59:46.633Z,13.47
2022-09-12T18:02:17.168Z,13.40
2022-09-12T18:04:49.062Z,13.33
2022-09-12T18:07:46.620Z,13.25
2022-09-12T18:10:15.944Z,13.13
2022-09-12T18:12:47.885Z,13.01
2022-09-12T18:15:17.700Z,12.89
2022-09-12T18:17:49.989Z,12.81
2022-09-12T18:20:20.655Z,12.75
2022-09-12T18:22:51.736Z,12.69
2022-09-12T18:25:21.304Z,12.62
2022-09-12T18:27:50.457Z,12.58
2022-09-12T18:30:23.540Z,12.53
2022-09-12T18:32:54.265Z,12.48
2022-09-12T18:35:23.803Z,12.41
2022-09-12T18:37:54.056Z,12.30
2022-09-12T18:40:24.858Z,12.18
2022-09-12T18:42:54.283Z,12.09
2022-09-12T18:45:23.986Z,11.96
2022-09-12T18:47:54.288Z,11.87
2022-09-12T18:50:25.304Z,11.80
2022-09-12T18:53:02.285Z,11.71
2022-09-12T18:55:33.994Z,11.64
2022-09-12T18:58:04.253Z,11.58
2022-09-12T19:00:33.848Z,11.54
2022-09-12T19:03:10.536Z,11.49
2022-09-12T19:05:41.708Z,11.44
2022-09-12T19:08:38.343Z,11.38
2022-09-12T19:11:12.059Z,11.34
2022-09-12T19:13:44.248Z,11.26
2022-09-12T19:16:17.041Z,11.17
2022-09-12T19:18:49.207Z,11.08
2022-09-12T19:21:25.873Z,10.98
2022-09-12T19:24:01.446Z,10.96
2022-09-12T19:26:35.242Z,10.90
2022-09-12T19:29:07.745Z,10.82
2022-09-12T19:31:38.867Z,10.74
2022-09-12T19:34:11.273Z,10.65
2022-09-12T19:36:45.368Z,10.62
2022-09-12T19:39:18.693Z,10.57
2022-09-12T19:41:50.750Z,10.55
2022-09-12T19:44:24.336Z,10.48
2022-09-12T19:46:57.453Z,10.39
2022-09-12T19:49:27.620Z,10.32
2022-09-12T19:51:56.932Z,10.26
2022-09-12T19:54:27.165Z,10.18
2022-09-12T19:56:57.900Z,10.14
2022-09-12T19:59:29.154Z,10.10
2022-09-12T20:01:58.966Z,10.06
2022-09-12T20:04:27.917Z,10.01
2022-09-12T20:07:00.827Z,9.96
2022-09-12T20:09:29.616Z,9.91
2022-09-12T20:11:58.128Z,9.89
2022-09-12T20:14:32.367Z,9.85
2022-09-12T20:17:03.955Z,9.79
2022-09-12T20:19:36.047Z,9.76
2022-09-12T20:22:05.824Z,9.75
2022-09-12T20:24:36.875Z,9.71
2022-09-12T20:27:07.149Z,9.72
2022-09-12T20:29:35.891Z,9.70
2022-09-12T20:32:04.620Z,9.61
2022-09-12T20:34:36.224Z,9.56
2022-09-12T20:37:05.662Z,9.53
2022-09-12T20:39:36.367Z,9.49
2022-09-12T20:42:06.447Z,9.46
2022-09-12T20:44:35.255Z,9.39
2022-09-12T20:47:04.046Z,9.35
2022-09-12T20:49:33.076Z,9.32
2022-09-12T20:52:03.231Z,9.22
2022-09-12T20:54:33.569Z,9.14
2022-09-12T20:57:02.195Z,9.07
2022-09-12T20:59:32.881Z,9.01
2022-09-12T21:02:02.655Z,8.94
2022-09-12T21:04:31.886Z,8.84
2022-09-12T21:07:01.937Z,8.74
2022-09-12T21:09:31.494Z,8.67
2022-09-12T21:12:00.021Z,8.60
2022-09-12T21:14:28.610Z,8.57
2022-09-12T21:16:57.388Z,8.57
2022-09-12T21:19:26.711Z,8.59
2022-09-12T21:21:55.288Z,8.60
2022-09-12T21:24:25.156Z,8.54
2022-09-12T21:26:55.701Z,8.44
2022-09-12T21:29:24.413Z,8.42
2022-09-12T21:31:54.250Z,8.40
2022-09-12T21:34:23.938Z,8.38
2022-09-12T21:36:53.892Z,8.32
2022-09-12T21:39:22.565Z,8.27
2022-09-12T21:41:51.077Z,8.28
2022-09-12T21:44:20.571Z,8.26
2022-09-12T21:46:49.113Z,8.29
2022-09-12T21:49:20.825Z,8.29
2022-09-12T21:51:50.557Z,8.30
2022-09-12T21:54:21.072Z,8.25
2022-09-12T21:56:51.979Z,8.19
2022-09-12T21:59:22.667Z,8.11
2022-09-12T22:01:51.339Z,8.02
2022-09-12T22:04:20.883Z,7.98
2022-09-12T22:06:51.159Z,7.94
2022-09-12T22:09:20.095Z,7.89
2022-09-12T22:11:50.360Z,7.81
2022-09-12T22:14:19.503Z,7.71
2022-09-12T22:16:48.452Z,7.71
2022-09-12T22:19:18.810Z,7.72
2022-09-12T22:22:06.200Z,7.72
2022-09-12T22:24:34.958Z,7.67
2022-09-12T22:27:06.445Z,7.63
2022-09-12T22:29:36.858Z,7.58
2022-09-12T22:32:06.130Z,7.51
2022-09-12T22:34:34.788Z,7.49
2022-09-12T22:37:03.510Z,7.51
2022-09-12T22:39:33.718Z,7.54
2022-09-12T22:42:04.220Z,7.58
2022-09-12T22:44:32.886Z,7.59
2022-09-12T22:47:05.483Z,7.52
2022-09-12T22:49:35.839Z,7.49
2022-09-12T22:52:04.796Z,7.51
2022-09-12T22:54:33.325Z,7.51
2022-09-12T22:57:03.263Z,7.48
2022-09-12T22:59:32.595Z,7.47
2022-09-12T23:02:01.457Z,7.48
2022-09-12T23:04:30.355Z,7.48
2022-09-12T23:07:00.285Z,7.48
2022-09-12T23:09:32.133Z,7.46
2022-09-12T23:12:04.892Z,7.44
2022-09-12T23:14:34.939Z,7.45
2022-09-12T23:17:04.075Z,7.46
2022-09-12T23:19:36.410Z,7.45
2022-09-12T23:22:05.087Z,7.44
2022-09-12T23:24:34.218Z,7.38
2022-09-12T23:27:03.100Z,7.32
2022-09-12T23:29:34.724Z,7.30
2022-09-12T23:32:05.175Z,7.26
2022-09-12T23:34:33.931Z,7.24
2022-09-12T23:37:04.284Z,7.19
2022-09-12T23:39:35.449Z,7.10
2022-09-12T23:42:05.251Z,7.04
2022-09-12T23:44:34.146Z,6.95
2022-09-12T23:47:03.787Z,6.86
2022-09-12T23:49:32.510Z,6.79
2022-09-12T23:52:02.965Z,6.78
2022-09-12T23:54:31.867Z,6.82
2022-09-12T23:57:00.632Z,6.84
2022-09-12T23:59:31.398Z,6.83
